Terminal Aerodrome Forecast
Issued by NWS Shreveport, LA

Home | Current Version | Previous Version | Text Only | Print | Product List | Glossary On
Versions: 1 2 3 4 5 6 7 8 9 10 11 12 13 14 15 16
000
FTUS44 KSHV 030539
TAFLFK
TAF
KLFK 030539Z 0306/0406 17006KT P6SM SCT250
      TEMPO 0310/0314 5SM BR BKN008
     FM031400 21008KT P6SM BKN010
     FM031600 20010KT P6SM SCT015 SCT150 BKN250
     FM031800 21011KT P6SM VCTS BKN050CB
     FM040000 16004KT P6SM OVC250=

USA.gov is the U.S. government's official web portal to all federal, state and local government web resources and services.